createdAt,value
2018-09-15T00:03:00.945Z,5.80
2018-09-15T00:07:04.676Z,5.40
2018-09-15T00:11:08.384Z,6.07
2018-09-15T00:15:12.169Z,5.50
2018-09-15T00:19:15.925Z,5.47
2018-09-15T00:23:19.621Z,5.90
2018-09-15T00:27:23.373Z,5.47
2018-09-15T00:31:27.101Z,7.27
2018-09-15T00:35:30.808Z,8.40
2018-09-15T00:39:34.482Z,7.90
2018-09-15T00:43:38.234Z,8.77
2018-09-15T00:47:41.912Z,7.70
2018-09-15T00:51:45.623Z,8.37
2018-09-15T00:55:49.363Z,8.27
2018-09-15T00:59:53.065Z,8.27
2018-09-15T01:03:56.780Z,7.93
2018-09-15T01:08:00.453Z,8.30
2018-09-15T01:12:04.152Z,8.07
2018-09-15T01:16:07.884Z,8.77
2018-09-15T01:20:11.623Z,7.80
2018-09-15T01:24:15.280Z,7.33
2018-09-15T01:28:18.951Z,6.80
2018-09-15T01:32:22.712Z,7.03
2018-09-15T01:36:26.389Z,6.43
2018-09-15T01:40:30.135Z,6.17
2018-09-15T01:44:33.792Z,6.27
2018-09-15T01:48:37.483Z,6.47
2018-09-15T01:52:41.167Z,6.57
2018-09-15T01:56:44.951Z,6.30
2018-09-15T02:00:48.719Z,7.87
2018-09-15T02:04:52.341Z,8.00
2018-09-15T02:08:56.012Z,8.60
2018-09-15T02:12:59.724Z,8.53
2018-09-15T02:17:03.400Z,9.43
2018-09-15T02:21:07.147Z,9.50
2018-09-15T02:25:10.796Z,9.83
2018-09-15T02:29:14.485Z,7.90
2018-09-15T02:33:18.149Z,8.83
2018-09-15T02:37:21.836Z,9.00
2018-09-15T02:41:25.494Z,8.93
2018-09-15T02:45:29.116Z,8.63
2018-09-15T02:49:32.787Z,9.00
2018-09-15T02:53:36.453Z,8.17
2018-09-15T02:57:40.120Z,8.10
2018-09-15T03:01:43.795Z,8.30
2018-09-15T03:05:47.444Z,7.50
2018-09-15T03:09:51.130Z,7.30
2018-09-15T03:13:54.799Z,7.40
2018-09-15T03:17:58.464Z,7.07
2018-09-15T03:22:02.136Z,7.57
2018-09-15T03:26:05.905Z,5.80
2018-09-15T03:30:09.592Z,6.50
2018-09-15T03:34:13.384Z,5.13
2018-09-15T03:38:17.088Z,5.30
2018-09-15T03:42:20.859Z,5.37
2018-09-15T03:46:24.545Z,5.47
2018-09-15T03:50:28.167Z,5.90
2018-09-15T03:54:31.845Z,4.30
2018-09-15T03:58:35.497Z,5.10
2018-09-15T04:02:39.161Z,4.13
2018-09-15T04:06:42.872Z,5.07
2018-09-15T04:10:46.487Z,4.13
2018-09-15T04:14:50.133Z,4.40
2018-09-15T04:18:53.812Z,5.30
2018-09-15T04:22:57.457Z,4.77
2018-09-15T04:27:01.119Z,4.30
2018-09-15T04:31:04.784Z,4.60
2018-09-15T04:35:08.507Z,4.63
2018-09-15T04:39:12.903Z,4.60
2018-09-15T04:43:16.560Z,4.87
2018-09-15T04:47:20.209Z,4.67
2018-09-15T04:51:23.847Z,4.97
2018-09-15T04:55:27.505Z,4.67
2018-09-15T04:59:31.157Z,5.30
2018-09-15T05:03:34.931Z,5.10
2018-09-15T05:07:38.583Z,5.10
2018-09-15T05:11:42.624Z,5.27
2018-09-15T05:15:46.242Z,6.13
2018-09-15T05:19:49.889Z,5.83
2018-09-15T05:23:53.564Z,5.70
2018-09-15T05:27:57.576Z,6.10
2018-09-15T05:32:01.289Z,7.00
2018-09-15T05:36:05.033Z,7.53
2018-09-15T05:40:08.708Z,6.37
2018-09-15T05:44:12.379Z,6.77
2018-09-15T05:48:16.141Z,7.33
2018-09-15T05:52:19.828Z,6.63
2018-09-15T05:56:23.480Z,6.93
2018-09-15T06:00:27.226Z,7.30
2018-09-15T06:04:30.881Z,7.53
2018-09-15T06:08:34.549Z,7.20
2018-09-15T06:12:38.238Z,7.80
2018-09-15T06:16:41.860Z,7.27
2018-09-15T06:20:45.519Z,8.30
2018-09-15T06:24:49.180Z,7.27
2018-09-15T06:28:52.908Z,8.00
2018-09-15T06:32:56.624Z,7.37
2018-09-15T06:37:00.291Z,7.60
2018-09-15T06:41:03.973Z,7.57
2018-09-15T06:45:07.840Z,7.67
2018-09-15T06:49:11.508Z,8.37
2018-09-15T06:53:15.176Z,8.10
2018-09-15T06:57:18.816Z,8.73
2018-09-15T07:01:22.577Z,8.57
2018-09-15T07:05:26.268Z,9.03
2018-09-15T07:09:29.985Z,8.47
2018-09-15T07:13:33.647Z,7.73
2018-09-15T07:17:37.292Z,7.90
2018-09-15T07:21:40.952Z,8.67
2018-09-15T07:25:44.784Z,9.17
2018-09-15T07:29:48.526Z,8.87
2018-09-15T07:33:52.197Z,7.70
2018-09-15T07:37:55.856Z,7.77
2018-09-15T07:41:59.548Z,7.37
2018-09-15T07:46:03.234Z,7.07
2018-09-15T07:50:07.008Z,6.70
2018-09-15T07:54:10.687Z,7.43
2018-09-15T07:58:14.406Z,6.67
2018-09-15T08:02:22.246Z,6.93
2018-09-15T08:06:25.929Z,6.97
2018-09-15T08:10:29.643Z,5.90
2018-09-15T08:14:33.339Z,5.93
2018-09-15T08:18:37.024Z,5.73
2018-09-15T08:22:40.677Z,6.10
2018-09-15T08:26:44.369Z,5.97
2018-09-15T08:30:48.094Z,6.03
2018-09-15T08:34:51.788Z,6.17
2018-09-15T08:38:55.475Z,5.60
2018-09-15T08:42:59.140Z,5.80
2018-09-15T08:47:02.851Z,5.77
2018-09-15T08:51:06.737Z,5.00
2018-09-15T08:55:10.448Z,4.90
2018-09-15T08:59:14.223Z,4.77
2018-09-15T09:03:17.880Z,5.13
2018-09-15T09:07:21.532Z,4.47
2018-09-15T09:11:25.729Z,4.80
2018-09-15T09:15:29.588Z,4.13
2018-09-15T09:19:33.261Z,4.93
2018-09-15T09:23:37.096Z,3.57
2018-09-15T09:27:40.812Z,3.60
2018-09-15T09:31:44.564Z,4.23
2018-09-15T09:35:48.549Z,4.70
2018-09-15T09:39:52.296Z,5.77
2018-09-15T09:43:55.941Z,6.03
2018-09-15T09:47:59.808Z,5.50
2018-09-15T09:52:03.515Z,5.30
2018-09-15T09:56:07.180Z,5.47
2018-09-15T10:00:15.184Z,5.73
2018-09-15T10:04:18.938Z,5.83
2018-09-15T10:08:22.616Z,6.50
2018-09-15T10:12:26.292Z,6.13
2018-09-15T10:16:30.038Z,7.13
2018-09-15T10:20:33.865Z,6.70
2018-09-15T10:24:37.523Z,7.03
2018-09-15T10:28:41.168Z,4.93
2018-09-15T10:32:45.120Z,5.33
2018-09-15T10:36:48.842Z,4.53
2018-09-15T10:40:52.514Z,4.10
2018-09-15T10:44:56.211Z,5.20
2018-09-15T10:49:00.041Z,4.23
2018-09-15T10:53:03.786Z,4.17
2018-09-15T10:57:07.544Z,3.70
2018-09-15T11:01:11.240Z,3.37
2018-09-15T11:05:14.935Z,3.33
2018-09-15T11:09:18.589Z,3.10
2018-09-15T11:13:22.365Z,2.80
2018-09-15T11:17:26.063Z,3.13
2018-09-15T11:21:29.817Z,3.53
2018-09-15T11:25:33.530Z,2.77
2018-09-15T11:29:37.277Z,3.10
2018-09-15T11:33:40.955Z,2.67
2018-09-15T11:37:44.738Z,2.27
2018-09-15T11:41:48.418Z,2.27
2018-09-15T11:45:52.166Z,1.73
2018-09-15T11:49:55.843Z,2.00
2018-09-15T11:53:59.673Z,2.60
2018-09-15T11:58:03.299Z,2.40
2018-09-15T12:02:07.154Z,2.47
2018-09-15T12:06:10.787Z,2.67
2018-09-15T12:10:21.190Z,2.90
2018-09-15T12:14:24.855Z,2.63
2018-09-15T12:18:28.548Z,3.20
2018-09-15T12:22:32.339Z,3.33
2018-09-15T12:26:36.363Z,3.10
2018-09-15T12:30:40.205Z,2.57
2018-09-15T12:34:43.985Z,2.80
2018-09-15T12:38:47.715Z,2.63
2018-09-15T12:42:51.564Z,2.30
2018-09-15T12:46:55.308Z,2.53
2018-09-15T12:50:59.029Z,2.53
2018-09-15T12:55:02.749Z,2.30
2018-09-15T12:59:06.989Z,2.00
2018-09-15T13:03:10.769Z,1.83
2018-09-15T13:07:14.740Z,2.33
2018-09-15T13:11:18.564Z,2.03
2018-09-15T13:15:22.309Z,2.03
2018-09-15T13:19:25.956Z,1.93
2018-09-15T13:23:29.648Z,2.00
2018-09-15T13:27:33.336Z,2.67
2018-09-15T13:31:37.117Z,2.20
2018-09-15T13:35:40.756Z,2.80
2018-09-15T13:39:44.445Z,2.40
2018-09-15T13:43:48.122Z,2.30
2018-09-15T13:47:51.852Z,2.07
2018-09-15T13:51:55.606Z,1.80
2018-09-15T13:55:59.249Z,2.50
2018-09-15T14:00:03.342Z,2.10
2018-09-15T14:04:07.198Z,2.03
2018-09-15T14:08:10.891Z,2.43
2018-09-15T14:12:15.463Z,1.50
2018-09-15T14:16:19.278Z,1.80
2018-09-15T14:20:23.013Z,1.50
2018-09-15T14:24:27.105Z,1.70
2018-09-15T14:28:30.803Z,1.53
2018-09-15T14:32:34.533Z,1.30
2018-09-15T14:36:38.201Z,1.57
2018-09-15T14:40:41.921Z,1.80
2018-09-15T14:48:42.160Z,1.90
2018-09-15T14:52:45.877Z,1.57
2018-09-15T14:56:49.592Z,1.83
2018-09-15T15:00:53.277Z,1.90
2018-09-15T15:04:57.000Z,1.70
2018-09-15T15:09:00.700Z,1.50
2018-09-15T15:13:04.392Z,1.20
2018-09-15T15:17:08.094Z,1.70
2018-09-15T15:21:12.105Z,1.50
2018-09-15T15:25:15.852Z,2.00
2018-09-15T15:29:19.549Z,1.73
2018-09-15T15:33:23.235Z,1.80
2018-09-15T15:37:26.885Z,1.87
2018-09-15T15:41:30.651Z,1.67
2018-09-15T15:45:34.340Z,1.70
2018-09-15T15:49:38.081Z,1.60
2018-09-15T15:53:41.833Z,1.67
2018-09-15T15:57:45.538Z,1.07
2018-09-15T16:01:49.296Z,1.53
2018-09-15T16:05:52.964Z,1.87
2018-09-15T16:09:56.640Z,1.40
2018-09-15T16:14:00.343Z,1.50
2018-09-15T16:18:04.092Z,1.47
2018-09-15T16:22:07.806Z,1.53
2018-09-15T16:26:11.500Z,2.03
2018-09-15T16:30:15.293Z,1.57
2018-09-15T16:34:19.035Z,1.60
2018-09-15T16:38:22.953Z,1.33
2018-09-15T16:42:26.826Z,2.03
2018-09-15T16:46:30.681Z,1.30
2018-09-15T16:50:34.533Z,1.67
2018-09-15T16:54:38.245Z,1.57
2018-09-15T16:58:41.944Z,1.50
2018-09-15T17:02:45.627Z,1.60
2018-09-15T17:06:49.322Z,1.70
2018-09-15T17:10:53.064Z,1.87
2018-09-15T17:14:56.733Z,1.73
2018-09-15T17:19:00.424Z,1.40
2018-09-15T17:23:04.367Z,1.43
2018-09-15T17:27:08.111Z,1.30
2018-09-15T17:31:11.889Z,1.17
2018-09-15T17:35:15.525Z,1.13
2018-09-15T17:39:19.219Z,1.03
2018-09-15T17:43:22.869Z,1.53
2018-09-15T17:47:26.527Z,1.27
2018-09-15T17:51:30.189Z,1.40
2018-09-15T17:55:33.924Z,1.60
2018-09-15T17:59:37.591Z,1.63
2018-09-15T18:03:41.339Z,1.37
2018-09-15T18:07:44.976Z,1.57
2018-09-15T18:11:48.633Z,1.30
2018-09-15T18:15:52.367Z,1.57
2018-09-15T18:19:56.067Z,1.77
2018-09-15T18:23:59.812Z,1.47
2018-09-15T18:28:03.537Z,1.40
2018-09-15T18:32:07.229Z,1.70
2018-09-15T18:36:11.010Z,1.70
2018-09-15T18:40:14.745Z,1.47
2018-09-15T18:44:18.435Z,1.30
2018-09-15T18:48:22.132Z,1.50
2018-09-15T18:52:25.791Z,1.67
2018-09-15T18:56:29.501Z,1.47
2018-09-15T19:00:33.257Z,1.17
2018-09-15T19:04:36.872Z,1.87
2018-09-15T19:08:40.625Z,1.43
2018-09-15T19:12:44.274Z,1.50
2018-09-15T19:16:47.920Z,1.70
2018-09-15T19:20:51.568Z,1.30
2018-09-15T19:24:55.206Z,2.07
2018-09-15T19:28:58.895Z,1.80
2018-09-15T19:33:02.637Z,1.50
2018-09-15T19:37:06.478Z,1.90
2018-09-15T19:41:10.387Z,1.90
2018-09-15T19:45:14.042Z,1.77
2018-09-15T19:49:17.692Z,1.50
2018-09-15T19:53:21.357Z,1.70
2018-09-15T19:57:25.072Z,1.97
2018-09-15T20:01:28.845Z,1.57
2018-09-15T20:05:32.497Z,2.20
2018-09-15T20:09:36.199Z,1.90
2018-09-15T20:13:39.859Z,1.97
2018-09-15T20:17:42.315Z,2.13
2018-09-15T20:21:44.788Z,1.73
2018-09-15T20:25:48.454Z,1.17
2018-09-15T20:29:52.098Z,1.97
2018-09-15T20:33:55.795Z,1.93
2018-09-15T20:37:59.452Z,2.50
2018-09-15T20:42:03.159Z,2.40
2018-09-15T20:46:06.868Z,2.10
2018-09-15T20:50:10.512Z,2.10
2018-09-15T20:54:14.212Z,2.37
2018-09-15T20:58:17.884Z,2.23
2018-09-15T21:02:21.529Z,2.10
2018-09-15T21:06:25.234Z,2.30
2018-09-15T21:10:28.855Z,2.70
2018-09-15T21:14:32.500Z,2.40
2018-09-15T21:18:36.175Z,2.10
2018-09-15T21:22:39.863Z,2.00
2018-09-15T21:26:43.540Z,2.33
2018-09-15T21:30:47.203Z,2.10
2018-09-15T21:34:50.948Z,1.83
2018-09-15T21:38:54.683Z,2.20
2018-09-15T21:42:58.352Z,2.47
2018-09-15T21:47:02.031Z,3.33
2018-09-15T21:51:06.139Z,2.40
2018-09-15T21:55:09.806Z,2.87
2018-09-15T21:59:13.548Z,2.17
2018-09-15T22:03:21.419Z,2.50
2018-09-15T22:07:25.058Z,2.23
2018-09-15T22:11:28.771Z,2.43
2018-09-15T22:15:32.496Z,2.20
2018-09-15T22:19:36.175Z,2.27
2018-09-15T22:23:39.827Z,2.23
2018-09-15T22:27:43.465Z,2.40
2018-09-15T22:31:47.183Z,3.43
2018-09-15T22:35:50.859Z,2.60
2018-09-15T22:39:54.515Z,2.47
2018-09-15T22:43:58.162Z,2.83
2018-09-15T22:48:01.793Z,2.47
2018-09-15T22:52:05.453Z,2.53
2018-09-15T22:56:09.119Z,2.50
2018-09-15T23:00:12.791Z,2.97
2018-09-15T23:04:17.013Z,2.83
2018-09-15T23:08:20.709Z,2.63
2018-09-15T23:12:24.359Z,2.93
2018-09-15T23:16:28.038Z,2.30
2018-09-15T23:20:31.809Z,2.67
2018-09-15T23:24:35.495Z,2.60
2018-09-15T23:28:39.164Z,3.73
2018-09-15T23:32:42.864Z,2.53
2018-09-15T23:36:46.534Z,2.97
2018-09-15T23:40:50.233Z,2.90
2018-09-15T23:44:53.944Z,2.67
2018-09-15T23:48:57.671Z,2.80
2018-09-15T23:53:01.316Z,2.80
2018-09-15T23:57:05.141Z,2.80
